Time;durP1;ratioP1;P1;durP2;ratioP2;P2;SDS_P1;SDS_P2;PMS_P1;PMS_P2;Temp;Humidity;BMP_temperature;BMP_pressure;BME280_temperature;BME280_humidity;BME280_pressure;Samples;Min_cycle;Max_cycle;Signal;HPM_P1;HPM_P2
2022/07/31 00:00:11;;;;;;;;;;;20.10;99.90;;;;;;4974718;28;19929;-74
2022/07/31 00:02:45;;;;;;;;;;;20.00;99.90;;;;;;4999124;28;19941;-77
2022/07/31 00:05:35;;;;;;;;;;;20.00;99.90;;;;;;5007412;28;19936;-74
2022/07/31 00:08:20;;;;;;;;;;;20.00;99.90;;;;;;5007692;28;19925;-74
2022/07/31 00:11:04;;;;;;;;;;;19.90;99.90;;;;;;5007958;28;19929;-75
2022/07/31 00:13:50;;;;;;;;;;;19.90;99.90;;;;;;5007522;28;20308;-74
2022/07/31 00:16:26;;;;;;;;;;;19.80;99.90;;;;;;5006997;28;20304;-74
2022/07/31 00:19:01;;;;;;;;;;;19.80;99.90;;;;;;5007251;28;20029;-74
2022/07/31 00:21:47;;;;;;;;;;;19.70;99.90;;;;;;5007254;28;20020;-74
2022/07/31 00:24:33;;;;;;;;;;;19.60;99.90;;;;;;5006859;28;19926;-75
2022/07/31 00:27:13;;;;;;;;;;;19.60;99.90;;;;;;4991817;28;19937;-74
2022/07/31 00:29:51;;;;;;;;;;;19.60;99.90;;;;;;5007064;28;19930;-74
2022/07/31 00:32:39;;;;;;;;;;;19.60;99.90;;;;;;4975613;28;19930;-76
2022/07/31 00:35:16;;;;;;;;;;;19.60;99.90;;;;;;4974577;28;19937;-77
2022/07/31 00:38:04;;;;;;;;;;;19.50;99.90;;;;;;4974302;28;19929;-74
2022/07/31 00:40:37;;;;;;;;;;;19.50;99.90;;;;;;5007024;28;20344;-75
2022/07/31 00:43:31;;;;;;;;;;;19.50;99.90;;;;;;4974578;28;19984;-76
2022/07/31 00:46:01;;;;;;;;;;;19.40;99.90;;;;;;4889962;29;19932;-73
2022/07/31 00:48:28;;;;;;;;;;;19.30;99.90;;;;;;4920577;28;20348;-73
2022/07/31 00:50:55;;;;;;;;;;;19.20;99.90;;;;;;5006787;28;19992;-75
2022/07/31 00:53:24;;;;;;;;;;;19.20;99.90;;;;;;4974453;28;19934;-74
2022/07/31 00:55:51;;;;;;;;;;;19.10;99.90;;;;;;5006813;28;19934;-74
2022/07/31 00:58:18;;;;;;;;;;;19.10;99.90;;;;;;4973860;28;19926;-74
2022/07/31 01:00:45;;;;;;;;;;;19.00;99.90;;;;;;5006505;28;19930;-74
2022/07/31 01:03:12;;;;;;;;;;;18.90;99.90;;;;;;4991525;28;20245;-75
2022/07/31 01:05:40;;;;;;;;;;;18.90;99.90;;;;;;4974675;28;20020;-74
2022/07/31 01:08:07;;;;;;;;;;;18.80;99.90;;;;;;5006164;28;20100;-75
2022/07/31 01:10:40;;;;;;;;;;;18.70;99.90;;;;;;5006201;28;20380;-75
2022/07/31 01:13:10;;;;;;;;;;;18.70;99.90;;;;;;5006580;28;19930;-76
2022/07/31 01:15:37;;;;;;;;;;;18.60;99.90;;;;;;4973869;28;19934;-76
2022/07/31 01:18:06;;;;;;;;;;;18.50;99.90;;;;;;4990162;28;19929;-75
2022/07/31 01:20:33;;;;;;;;;;;18.40;99.90;;;;;;4974029;28;20407;-75
2022/07/31 01:23:13;;;;;;;;;;;18.40;99.90;;;;;;4973699;28;19929;-74
2022/07/31 01:25:55;;;;;;;;;;;18.30;99.90;;;;;;5005821;28;19936;-74
2022/07/31 01:28:57;;;;;;;;;;;18.20;99.90;;;;;;4990187;28;20252;-75
2022/07/31 01:31:30;;;;;;;;;;;18.20;99.90;;;;;;4972792;28;19973;-76
2022/07/31 01:34:02;;;;;;;;;;;18.10;99.90;;;;;;4972798;28;19926;-76
2022/07/31 01:36:33;;;;;;;;;;;18.10;99.90;;;;;;4972832;28;19930;-76
2022/07/31 01:39:00;;;;;;;;;;;18.10;99.90;;;;;;5005413;28;20400;-75
2022/07/31 01:41:30;;;;;;;;;;;18.10;99.90;;;;;;5006227;28;20344;-76
2022/07/31 01:43:59;;;;;;;;;;;18.10;99.90;;;;;;4973022;28;19933;-74
2022/07/31 01:46:27;;;;;;;;;;;18.10;99.90;;;;;;4988763;28;19926;-75
2022/07/31 01:48:55;;;;;;;;;;;18.10;99.90;;;;;;5005466;28;20036;-75
2022/07/31 01:51:25;;;;;;;;;;;18.10;99.90;;;;;;4972997;28;21872;-76
2022/07/31 01:53:53;;;;;;;;;;;18.20;99.90;;;;;;4972819;28;19988;-75
2022/07/31 01:56:21;;;;;;;;;;;18.20;99.90;;;;;;5005393;28;20349;-74
2022/07/31 01:58:49;;;;;;;;;;;18.20;99.90;;;;;;4972890;28;19929;-75
2022/07/31 02:01:37;;;;;;;;;;;18.20;99.90;;;;;;4972361;28;20066;-74
2022/07/31 02:04:06;;;;;;;;;;;18.20;99.90;;;;;;5004634;28;20032;-75
2022/07/31 02:06:34;;;;;;;;;;;18.20;99.90;;;;;;4972273;28;19930;-74
2022/07/31 02:09:02;;;;;;;;;;;18.30;99.90;;;;;;4972416;28;20452;-74
2022/07/31 02:11:30;;;;;;;;;;;18.30;99.90;;;;;;4972594;28;19953;-74
2022/07/31 02:13:59;;;;;;;;;;;18.30;99.90;;;;;;4972290;28;20020;-74
2022/07/31 02:16:29;;;;;;;;;;;18.30;99.90;;;;;;4972767;28;19940;-75
2022/07/31 02:19:06;;;;;;;;;;;18.30;99.90;;;;;;5004806;28;19936;-75
2022/07/31 02:21:34;;;;;;;;;;;18.40;99.90;;;;;;5004639;28;19936;-75
2022/07/31 02:24:01;;;;;;;;;;;18.40;99.90;;;;;;5004351;28;19930;-75
2022/07/31 02:26:29;;;;;;;;;;;18.40;99.90;;;;;;5004617;28;20262;-75
2022/07/31 02:28:56;;;;;;;;;;;18.40;99.90;;;;;;4972285;28;19930;-76
2022/07/31 02:31:26;;;;;;;;;;;18.40;99.90;;;;;;5004214;28;19961;-75
2022/07/31 02:33:53;;;;;;;;;;;18.40;99.90;;;;;;5004436;28;19938;-75
2022/07/31 02:36:22;;;;;;;;;;;18.40;99.90;;;;;;5005068;28;20024;-75
2022/07/31 02:38:50;;;;;;;;;;;18.40;99.90;;;;;;4971677;28;20407;-76
2022/07/31 02:41:18;;;;;;;;;;;18.40;99.90;;;;;;4973929;28;19926;-77
2022/07/31 02:43:45;;;;;;;;;;;18.40;99.90;;;;;;5004604;28;19974;-74
2022/07/31 02:46:21;;;;;;;;;;;18.40;99.90;;;;;;5004529;28;19933;-74
2022/07/31 02:48:50;;;;;;;;;;;18.50;99.90;;;;;;4972155;28;20393;-75
2022/07/31 02:51:18;;;;;;;;;;;18.50;99.90;;;;;;4971597;28;19930;-76
2022/07/31 02:53:47;;;;;;;;;;;19.20;99.90;;;;;;5005178;28;20028;-74
2022/07/31 02:56:15;;;;;;;;;;;18.50;99.90;;;;;;4971812;28;19992;-75
2022/07/31 02:58:42;;;;;;;;;;;18.50;99.90;;;;;;4971940;28;19937;-74
2022/07/31 03:01:20;;;;;;;;;;;18.50;99.90;;;;;;4971471;28;19953;-73
2022/07/31 03:03:47;;;;;;;;;;;18.50;99.90;;;;;;5005078;28;20432;-74
2022/07/31 03:06:15;;;;;;;;;;;18.50;99.90;;;;;;5004786;28;19957;-76
2022/07/31 03:08:43;;;;;;;;;;;18.50;99.90;;;;;;4972086;28;20351;-74
2022/07/31 03:11:12;;;;;;;;;;;18.50;99.90;;;;;;5003812;28;19984;-75
2022/07/31 03:13:42;;;;;;;;;;;18.80;99.90;;;;;;4971855;28;19956;-75
2022/07/31 03:16:11;;;;;;;;;;;18.60;99.90;;;;;;4971796;28;20408;-75
2022/07/31 03:18:39;;;;;;;;;;;18.60;99.90;;;;;;4975771;28;19980;-75
2022/07/31 03:21:06;;;;;;;;;;;18.60;99.90;;;;;;5007864;28;19926;-75
2022/07/31 03:23:35;;;;;;;;;;;18.70;99.90;;;;;;4993943;28;20320;-76
2022/07/31 03:26:06;;;;;;;;;;;18.70;99.90;;;;;;4975651;28;20312;-75
2022/07/31 03:28:35;;;;;;;;;;;18.70;99.90;;;;;;5007218;28;19949;-75
2022/07/31 03:31:02;;;;;;;;;;;19.70;99.90;;;;;;5007074;28;19929;-73
2022/07/31 03:33:31;;;;;;;;;;;18.80;99.90;;;;;;4975620;28;19929;-74
2022/07/31 03:35:58;;;;;;;;;;;18.90;99.90;;;;;;4975246;28;19929;-74
2022/07/31 03:38:25;;;;;;;;;;;18.90;99.90;;;;;;5007492;28;19926;-74
2022/07/31 03:40:52;;;;;;;;;;;19.00;99.90;;;;;;5007240;28;20348;-74
2022/07/31 03:43:20;;;;;;;;;;;19.00;99.90;;;;;;4974579;28;19929;-74
2022/07/31 03:45:49;;;;;;;;;;;19.00;99.90;;;;;;4974916;28;19929;-75
2022/07/31 03:48:16;;;;;;;;;;;19.10;99.90;;;;;;4974356;28;19926;-74
2022/07/31 03:50:44;;;;;;;;;;;19.10;99.90;;;;;;4975516;28;19964;-75
2022/07/31 03:53:11;;;;;;;;;;;19.20;99.90;;;;;;4974597;28;19926;-75
2022/07/31 03:55:42;;;;;;;;;;;19.20;99.90;;;;;;4975210;28;19969;-74
2022/07/31 03:58:10;;;;;;;;;;;19.30;99.90;;;;;;4974732;28;19929;-76
2022/07/31 04:00:37;;;;;;;;;;;19.30;99.90;;;;;;4975448;28;19933;-76
2022/07/31 04:03:07;;;;;;;;;;;19.30;99.90;;;;;;5007646;28;20025;-75
2022/07/31 04:06:03;;;;;;;;;;;19.30;99.90;;;;;;4979984;28;20652;-75
2022/07/31 04:08:30;;;;;;;;;;;19.30;99.90;;;;;;4974325;28;19976;-76
2022/07/31 04:10:57;;;;;;;;;;;19.40;99.90;;;;;;5007586;28;19932;-73
2022/07/31 04:13:24;;;;;;;;;;;19.40;99.90;;;;;;5007273;28;19926;-75
2022/07/31 04:15:52;;;;;;;;;;;19.50;99.90;;;;;;5007399;28;19933;-74
2022/07/31 04:18:21;;;;;;;;;;;19.50;99.90;;;;;;4974402;28;20384;-75
2022/07/31 04:20:49;;;;;;;;;;;19.60;99.90;;;;;;4974130;28;19930;-75
2022/07/31 04:23:16;;;;;;;;;;;19.60;99.90;;;;;;4974749;28;19933;-75
2022/07/31 04:26:06;;;;;;;;;;;19.70;99.90;;;;;;4986316;28;19933;-75
2022/07/31 04:28:39;;;;;;;;;;;19.70;99.90;;;;;;5006200;28;19929;-75
2022/07/31 04:31:05;;;;;;;;;;;19.70;99.90;;;;;;5006778;28;20024;-73
2022/07/31 04:33:38;;;;;;;;;;;20.10;99.90;;;;;;4974794;28;20068;-74
2022/07/31 04:36:05;;;;;;;;;;;19.80;99.90;;;;;;4974376;28;19941;-74
2022/07/31 04:38:32;;;;;;;;;;;19.80;99.90;;;;;;5006453;28;19983;-74
2022/07/31 04:40:59;;;;;;;;;;;19.90;99.90;;;;;;4973657;28;20039;-75
2022/07/31 04:43:26;;;;;;;;;;;19.90;99.90;;;;;;4974382;28;20353;-75
2022/07/31 04:45:53;;;;;;;;;;;19.90;99.90;;;;;;5006616;28;20016;-75
2022/07/31 04:48:20;;;;;;;;;;;19.90;99.90;;;;;;4974025;28;19937;-74
2022/07/31 04:50:49;;;;;;;;;;;20.00;99.90;;;;;;4973904;28;19925;-76
2022/07/31 04:53:16;;;;;;;;;;;20.00;99.90;;;;;;4973743;28;19926;-73
2022/07/31 04:56:31;;;;;;;;;;;20.10;99.90;;;;;;5005748;28;19945;-74
2022/07/31 04:58:30;;;;;;;;;;;20.10;99.90;;;;;;4974485;28;20024;-74
2022/07/31 05:00:57;;;;;;;;;;;20.10;99.90;;;;;;4974328;28;20282;-75
2022/07/31 05:03:24;;;;;;;;;;;20.10;99.90;;;;;;4974242;28;19930;-75
2022/07/31 05:05:52;;;;;;;;;;;20.20;99.90;;;;;;4973875;28;19933;-74
2022/07/31 05:08:19;;;;;;;;;;;20.20;99.90;;;;;;5005962;28;19945;-75
2022/07/31 05:13:32;;;;;;;;;;;20.30;99.90;;;;;;5005877;28;19929;-74
2022/07/31 05:15:59;;;;;;;;;;;20.40;99.90;;;;;;5006220;28;19968;-75
2022/07/31 05:18:26;;;;;;;;;;;20.40;99.90;;;;;;5006030;28;20452;-75
2022/07/31 05:21:13;;;;;;;;;;;20.50;99.90;;;;;;4998046;28;19937;-73
2022/07/31 05:24:00;;;;;;;;;;;20.60;99.90;;;;;;4960779;28;19985;-74
2022/07/31 05:26:38;;;;;;;;;;;20.80;99.90;;;;;;4974219;28;19926;-73
2022/07/31 05:29:06;;;;;;;;;;;20.90;99.90;;;;;;5006084;28;19942;-74
2022/07/31 05:31:34;;;;;;;;;;;21.00;99.90;;;;;;5005606;28;19945;-74
2022/07/31 05:34:00;;;;;;;;;;;21.20;99.90;;;;;;5006043;28;19930;-72
2022/07/31 05:36:29;;;;;;;;;;;21.40;99.90;;;;;;4972838;28;20004;-75
2022/07/31 05:38:57;;;;;;;;;;;21.60;99.90;;;;;;4973063;28;19964;-73
2022/07/31 05:41:33;;;;;;;;;;;21.80;99.90;;;;;;4996796;28;20501;-73
2022/07/31 05:44:17;;;;;;;;;;;21.90;99.90;;;;;;5005586;28;19937;-73
2022/07/31 05:46:47;;;;;;;;;;;22.00;99.90;;;;;;5005341;28;19992;-72
2022/07/31 05:49:14;;;;;;;;;;;22.00;99.90;;;;;;4972949;28;19929;-73
2022/07/31 05:51:45;;;;;;;;;;;22.00;99.90;;;;;;4973339;28;19992;-73
2022/07/31 05:54:12;;;;;;;;;;;22.00;99.90;;;;;;4972822;28;20385;-73
2022/07/31 05:56:57;;;;;;;;;;;22.10;99.90;;;;;;4996251;28;20080;-74
2022/07/31 05:59:33;;;;;;;;;;;22.20;99.90;;;;;;4972728;28;19930;-73
2022/07/31 06:02:00;;;;;;;;;;;22.30;99.90;;;;;;5005310;28;20375;-75
2022/07/31 06:04:28;;;;;;;;;;;22.50;99.90;;;;;;4999135;28;20020;-75
2022/07/31 06:06:57;;;;;;;;;;;22.70;99.90;;;;;;4969488;28;19989;-74
2022/07/31 06:09:24;;;;;;;;;;;23.00;99.90;;;;;;4985419;28;19961;-74
2022/07/31 06:11:53;;;;;;;;;;;23.30;99.90;;;;;;4969739;28;19984;-75
2022/07/31 06:14:20;;;;;;;;;;;24.00;99.90;;;;;;4970075;28;20457;-73
2022/07/31 06:17:05;;;;;;;;;;;24.70;99.90;;;;;;4977563;28;20565;-72
2022/07/31 06:19:33;;;;;;;;;;;25.10;99.90;;;;;;4952922;28;19930;-71
2022/07/31 06:22:02;;;;;;;;;;;25.20;99.90;;;;;;4969348;28;20389;-74
2022/07/31 06:24:30;;;;;;;;;;;25.10;99.90;;;;;;4969340;28;20405;-74
2022/07/31 06:26:58;;;;;;;;;;;25.00;99.90;;;;;;4952929;28;19973;-75
2022/07/31 06:29:26;;;;;;;;;;;24.80;99.90;;;;;;4984654;28;20330;-75
2022/07/31 06:31:53;;;;;;;;;;;24.60;99.90;;;;;;4952489;28;19926;-75
2022/07/31 06:34:21;;;;;;;;;;;24.40;99.90;;;;;;4969307;28;20473;-75
2022/07/31 06:36:48;;;;;;;;;;;24.10;99.90;;;;;;4970280;28;19936;-73
2022/07/31 06:39:19;;;;;;;;;;;24.10;99.90;;;;;;4968817;28;19926;-72
2022/07/31 06:42:05;;;;;;;;;;;24.00;99.90;;;;;;4970601;28;20304;-73
2022/07/31 06:44:32;;;;;;;;;;;24.10;99.90;;;;;;4977161;28;19933;-73
2022/07/31 06:47:20;;;;;;;;;;;24.10;99.90;;;;;;4939839;28;19926;-73
2022/07/31 06:50:10;;;;;;;;;;;24.10;99.90;;;;;;4970758;28;19926;-75
2022/07/31 06:52:47;;;;;;;;;;;24.10;99.90;;;;;;4975541;28;19930;-73
2022/07/31 06:55:15;;;;;;;;;;;24.00;99.90;;;;;;4992131;28;19926;-74
2022/07/31 06:57:45;;;;;;;;;;;23.90;99.90;;;;;;4974018;28;19972;-74
2022/07/31 07:00:12;;;;;;;;;;;23.80;99.90;;;;;;4975472;28;20032;-75
2022/07/31 07:02:39;;;;;;;;;;;23.60;99.90;;;;;;4992059;28;20382;-74
2022/07/31 07:05:08;;;;;;;;;;;23.50;99.90;;;;;;4975880;28;20490;-75
2022/07/31 07:07:36;;;;;;;;;;;23.40;99.90;;;;;;4959451;28;19930;-73
2022/07/31 07:10:04;;;;;;;;;;;23.30;99.90;;;;;;4958581;28;19976;-73
2022/07/31 07:12:52;;;;;;;;;;;23.20;99.90;;;;;;4976448;28;19933;-76
2022/07/31 07:15:19;;;;;;;;;;;23.00;99.90;;;;;;4974981;28;19934;-74
2022/07/31 07:17:46;;;;;;;;;;;23.00;99.90;;;;;;4991663;28;19933;-74
2022/07/31 07:20:20;;;;;;;;;;;23.00;99.90;;;;;;4975447;28;19989;-74
2022/07/31 07:22:47;;;;;;;;;;;23.00;99.90;;;;;;4960236;28;19934;-74
2022/07/31 07:25:26;;;;;;;;;;;23.00;99.90;;;;;;4975749;28;19984;-74
2022/07/31 07:27:55;;;;;;;;;;;23.00;99.90;;;;;;4974925;28;20394;-73
2022/07/31 07:30:22;;;;;;;;;;;23.10;99.90;;;;;;4974514;28;19950;-75
2022/07/31 07:32:50;;;;;;;;;;;23.10;99.90;;;;;;4975434;28;20409;-74
2022/07/31 07:35:16;;;;;;;;;;;23.20;99.90;;;;;;4992070;28;19926;-74
2022/07/31 07:37:51;;;;;;;;;;;23.30;99.90;;;;;;4991713;28;19930;-74
2022/07/31 07:40:19;;;;;;;;;;;23.30;99.90;;;;;;4991910;28;19938;-73
2022/07/31 07:42:46;;;;;;;;;;;23.30;99.90;;;;;;4975086;28;20392;-74
2022/07/31 07:45:15;;;;;;;;;;;23.30;99.90;;;;;;4975138;28;19926;-74
2022/07/31 07:47:45;;;;;;;;;;;23.40;99.90;;;;;;4974693;28;19930;-74
2022/07/31 07:50:14;;;;;;;;;;;23.50;99.90;;;;;;4958222;28;19937;-74
2022/07/31 07:53:11;;;;;;;;;;;23.60;99.90;;;;;;4975789;28;20053;-74
2022/07/31 07:55:57;;;;;;;;;;;23.60;99.90;;;;;;4982742;28;19933;-73
2022/07/31 07:59:02;;;;;;;;;;;23.70;99.90;;;;;;4975251;28;19930;-74
2022/07/31 08:01:50;;;;;;;;;;;23.80;99.90;;;;;;4975362;28;19957;-74
2022/07/31 08:04:23;;;;;;;;;;;23.90;99.90;;;;;;4972244;28;20230;-74
2022/07/31 08:06:50;;;;;;;;;;;23.90;99.90;;;;;;4972631;28;19930;-74
2022/07/31 08:09:19;;;;;;;;;;;23.90;99.90;;;;;;4971766;28;19937;-74
2022/07/31 08:12:04;;;;;;;;;;;24.00;99.90;;;;;;4973574;28;20389;-74
2022/07/31 08:14:50;;;;;;;;;;;24.10;99.90;;;;;;4973004;28;19937;-75
2022/07/31 08:17:37;;;;;;;;;;;24.20;99.90;;;;;;4973300;28;19976;-73
2022/07/31 08:20:05;;;;;;;;;;;24.30;99.90;;;;;;4955505;28;19964;-74
2022/07/31 08:22:33;;;;;;;;;;;24.30;99.90;;;;;;4972266;28;20200;-74
2022/07/31 08:25:00;;;;;;;;;;;24.40;99.90;;;;;;4970993;28;19930;-74
2022/07/31 08:27:27;;;;;;;;;;;24.40;99.90;;;;;;4972179;28;19937;-74
2022/07/31 08:29:55;;;;;;;;;;;24.50;99.90;;;;;;4971103;28;19930;-74
2022/07/31 08:32:22;;;;;;;;;;;24.70;99.90;;;;;;4972267;28;19930;-74
2022/07/31 08:35:10;;;;;;;;;;;24.70;99.90;;;;;;4983490;28;20253;-74
2022/07/31 08:37:40;;;;;;;;;;;24.90;99.90;;;;;;5006464;28;19949;-74
2022/07/31 08:40:08;;;;;;;;;;;25.00;99.90;;;;;;4974809;28;20571;-74
2022/07/31 08:42:36;;;;;;;;;;;25.20;99.90;;;;;;4975349;28;19930;-74
2022/07/31 08:45:05;;;;;;;;;;;25.30;99.90;;;;;;5008325;28;20628;-74
2022/07/31 08:47:33;;;;;;;;;;;25.50;99.90;;;;;;5009614;28;19930;-74
2022/07/31 08:50:07;;;;;;;;;;;25.70;99.90;;;;;;4973515;28;19932;-74
2022/07/31 08:52:37;;;;;;;;;;;26.00;99.90;;;;;;4973510;28;19988;-74
2022/07/31 08:55:17;;;;;;;;;;;26.20;99.90;;;;;;4973261;28;19926;-73
2022/07/31 08:57:46;;;;;;;;;;;26.30;99.90;;;;;;4973584;28;20477;-73
2022/07/31 09:00:16;;;;;;;;;;;26.50;99.90;;;;;;5000335;28;20425;-74
2022/07/31 09:02:43;;;;;;;;;;;26.60;99.90;;;;;;4986298;28;19930;-73
2022/07/31 09:05:38;;;;;;;;;;;26.70;99.90;;;;;;4954588;28;19981;-75
2022/07/31 09:08:06;;;;;;;;;;;27.00;99.90;;;;;;4987141;28;20029;-75
2022/07/31 09:10:34;;;;;;;;;;;27.10;99.90;;;;;;4987299;28;19961;-76
2022/07/31 09:13:11;;;;;;;;;;;27.00;99.90;;;;;;4986988;28;19930;-75
2022/07/31 09:15:38;;;;;;;;;;;27.10;99.90;;;;;;4986098;28;20040;-76
2022/07/31 09:18:14;;;;;;;;;;;27.00;99.90;;;;;;4986956;28;20464;-75
2022/07/31 09:20:53;;;;;;;;;;;27.00;99.90;;;;;;4986980;28;20020;-76
2022/07/31 09:23:21;;;;;;;;;;;27.00;99.90;;;;;;4970233;28;19958;-76
2022/07/31 09:25:52;;;;;;;;;;;26.90;99.90;;;;;;4970976;28;19930;-74
2022/07/31 09:28:19;;;;;;;;;;;27.00;99.90;;;;;;4955321;28;19934;-78
2022/07/31 09:30:53;;;;;;;;;;;27.10;99.90;;;;;;4986266;28;20001;-76
2022/07/31 09:33:39;;;;;;;;;;;27.20;99.90;;;;;;4971525;28;19977;-76
2022/07/31 09:36:30;;;;;;;;;;;27.30;99.90;;;;;;4972666;28;19926;-75
2022/07/31 09:39:12;;;;;;;;;;;27.40;99.90;;;;;;4979457;28;19926;-79
2022/07/31 09:41:58;;;;;;;;;;;27.40;99.90;;;;;;4981809;28;20115;-82
2022/07/31 09:44:58;;;;;;;;;;;27.40;99.90;;;;;;4978783;28;19929;-83
2022/07/31 09:47:28;;;;;;;;;;;27.40;99.90;;;;;;4993909;28;19934;-80
2022/07/31 09:50:01;;;;;;;;;;;27.30;99.90;;;;;;4970552;28;19914;-79
2022/07/31 09:52:29;;;;;;;;;;;27.20;99.90;;;;;;4978341;28;19926;-78
2022/07/31 09:55:02;;;;;;;;;;;27.30;99.90;;;;;;4976892;28;19973;-78
2022/07/31 09:57:30;;;;;;;;;;;27.20;99.90;;;;;;4971075;28;19949;-79
2022/07/31 09:59:59;;;;;;;;;;;27.00;99.90;;;;;;4980706;28;19965;-79
2022/07/31 10:02:27;;;;;;;;;;;26.90;99.90;;;;;;4970048;28;19926;-78
2022/07/31 10:04:54;;;;;;;;;;;26.80;99.90;;;;;;4976969;28;19945;-78
2022/07/31 10:07:24;;;;;;;;;;;26.60;99.90;;;;;;4978087;28;19926;-79
2022/07/31 10:09:57;;;;;;;;;;;26.70;99.90;;;;;;4976213;28;20001;-80
2022/07/31 10:12:47;;;;;;;;;;;26.60;99.90;;;;;;4983287;28;19932;-79
2022/07/31 10:15:18;;;;;;;;;;;26.60;99.90;;;;;;4977285;28;20308;-80
2022/07/31 10:17:52;;;;;;;;;;;26.70;99.90;;;;;;4976103;28;20324;-79
2022/07/31 10:20:35;;;;;;;;;;;26.80;99.90;;;;;;5009390;28;20274;-79
2022/07/31 10:23:33;;;;;;;;;;;27.00;99.90;;;;;;4990834;28;19987;-79
2022/07/31 10:26:07;;;;;;;;;;;27.30;99.90;;;;;;4975368;28;19930;-80
2022/07/31 10:28:37;;;;;;;;;;;27.60;99.90;;;;;;4974731;28;19933;-80
2022/07/31 10:31:04;;;;;;;;;;;27.70;99.90;;;;;;5000795;28;20373;-79
2022/07/31 10:33:33;;;;;;;;;;;27.80;99.90;;;;;;4975557;28;20018;-80
2022/07/31 10:36:21;;;;;;;;;;;27.90;99.90;;;;;;4999809;28;20048;-78
2022/07/31 10:39:13;;;;;;;;;;;28.30;99.90;;;;;;4970571;28;20376;-78
2022/07/31 10:42:05;;;;;;;;;;;28.70;99.90;;;;;;4960952;28;19961;-76
2022/07/31 10:44:36;;;;;;;;;;;28.90;99.90;;;;;;4967240;28;20029;-78
2022/07/31 10:47:21;;;;;;;;;;;29.20;99.90;;;;;;4964715;28;19926;-76
2022/07/31 10:50:07;;;;;;;;;;;30.40;99.90;;;;;;4980273;28;19976;-80
2022/07/31 10:52:54;;;;;;;;;;;29.70;99.90;;;;;;4968318;28;19926;-77
2022/07/31 10:55:31;;;;;;;;;;;29.90;99.90;;;;;;4986640;28;20391;-77
2022/07/31 10:58:28;;;;;;;;;;;30.00;99.90;;;;;;4989872;28;19937;-75
2022/07/31 11:01:06;;;;;;;;;;;30.20;99.90;;;;;;4978865;28;20337;-77
2022/07/31 11:03:54;;;;;;;;;;;30.20;99.90;;;;;;4985847;28;19961;-77
2022/07/31 11:06:38;;;;;;;;;;;30.10;99.90;;;;;;4977127;28;19932;-78
2022/07/31 11:09:25;;;;;;;;;;;29.90;99.90;;;;;;4992558;28;19961;-77
2022/07/31 11:12:03;;;;;;;;;;;29.60;99.90;;;;;;4998579;28;20597;-79
2022/07/31 11:14:45;;;;;;;;;;;29.40;99.90;;;;;;4995693;28;20485;-79
2022/07/31 11:17:32;;;;;;;;;;;29.20;99.90;;;;;;4997164;28;19937;-78
2022/07/31 11:20:22;;;;;;;;;;;29.10;99.90;;;;;;4994347;28;20001;-77
2022/07/31 11:22:57;;;;;;;;;;;28.90;99.90;;;;;;5006509;28;19953;-79
2022/07/31 11:25:24;;;;;;;;;;;28.70;99.90;;;;;;5007146;28;19951;-80
2022/07/31 11:27:51;;;;;;;;;;;28.60;99.90;;;;;;4969028;28;19930;-82
2022/07/31 11:30:19;;;;;;;;;;;28.60;99.90;;;;;;4994288;28;20404;-80
2022/07/31 11:32:51;;;;;;;;;;;28.50;99.90;;;;;;4995441;28;19930;-79
2022/07/31 11:35:25;;;;;;;;;;;28.40;99.90;;;;;;4971797;28;19945;-80
2022/07/31 11:37:53;;;;;;;;;;;28.20;99.90;;;;;;4993400;28;19934;-79
2022/07/31 11:40:20;;;;;;;;;;;28.20;99.90;;;;;;4975272;28;19937;-80
2022/07/31 11:42:48;;;;;;;;;;;28.30;99.90;;;;;;4978892;28;19925;-81
2022/07/31 11:45:15;;;;;;;;;;;28.40;99.90;;;;;;4974336;28;19930;-77
2022/07/31 11:47:43;;;;;;;;;;;28.80;99.90;;;;;;4987632;28;19936;-78
2022/07/31 11:50:12;;;;;;;;;;;29.10;99.90;;;;;;5005644;28;20424;-77
2022/07/31 11:52:42;;;;;;;;;;;29.40;99.90;;;;;;4973214;28;20028;-79
2022/07/31 11:55:10;;;;;;;;;;;29.60;99.90;;;;;;4979587;28;19930;-78
2022/07/31 11:57:37;;;;;;;;;;;29.60;99.90;;;;;;4996604;28;20560;-78
2022/07/31 12:00:06;;;;;;;;;;;29.70;99.90;;;;;;4975279;28;19972;-79
2022/07/31 12:02:43;;;;;;;;;;;29.90;99.90;;;;;;4983251;28;19936;-77
2022/07/31 12:05:12;;;;;;;;;;;30.10;99.90;;;;;;4974078;28;20001;-77
2022/07/31 12:07:40;;;;;;;;;;;30.20;99.90;;;;;;4975525;28;19937;-77
2022/07/31 12:10:09;;;;;;;;;;;30.10;99.90;;;;;;4958502;28;19990;-77
2022/07/31 12:12:36;;;;;;;;;;;30.00;99.90;;;;;;4963908;28;19926;-77
2022/07/31 12:15:12;;;;;;;;;;;30.00;99.90;;;;;;4993078;28;19937;-77
2022/07/31 12:17:39;;;;;;;;;;;30.00;99.90;;;;;;4998114;28;19936;-77
2022/07/31 12:20:07;;;;;;;;;;;30.20;99.90;;;;;;4973438;28;19930;-77
2022/07/31 12:22:35;;;;;;;;;;;30.30;99.90;;;;;;4963529;28;19926;-77
2022/07/31 12:25:02;;;;;;;;;;;30.50;99.90;;;;;;4973800;28;20440;-77
2022/07/31 12:27:29;;;;;;;;;;;30.80;99.90;;;;;;4976609;28;19937;-79
2022/07/31 12:29:56;;;;;;;;;;;31.00;99.90;;;;;;5005068;28;19961;-77
2022/07/31 12:32:24;;;;;;;;;;;30.90;99.90;;;;;;5000031;28;19930;-77
2022/07/31 12:35:00;;;;;;;;;;;30.80;99.90;;;;;;4999605;28;19937;-77
2022/07/31 12:37:27;;;;;;;;;;;30.40;99.90;;;;;;4974788;28;20013;-78
2022/07/31 12:39:56;;;;;;;;;;;30.10;99.90;;;;;;5005494;28;19957;-79
2022/07/31 12:42:24;;;;;;;;;;;29.90;99.90;;;;;;4991259;28;19932;-78
2022/07/31 12:44:51;;;;;;;;;;;29.70;99.90;;;;;;4964314;28;19965;-77
2022/07/31 12:47:21;;;;;;;;;;;29.30;99.90;;;;;;4991822;28;19957;-77
2022/07/31 12:49:48;;;;;;;;;;;29.10;99.90;;;;;;4973220;28;19942;-77
2022/07/31 12:52:15;;;;;;;;;;;28.90;99.90;;;;;;4973621;28;19937;-79
2022/07/31 12:54:42;;;;;;;;;;;28.90;99.90;;;;;;5004843;28;19957;-79
2022/07/31 12:57:11;;;;;;;;;;;28.90;99.90;;;;;;4969711;28;20392;-76
2022/07/31 12:59:38;;;;;;;;;;;29.00;99.90;;;;;;4998638;28;19934;-78
2022/07/31 13:02:05;;;;;;;;;;;29.20;99.90;;;;;;4968083;28;20313;-78
2022/07/31 13:04:32;;;;;;;;;;;29.20;99.90;;;;;;4980058;28;19984;-77
2022/07/31 13:06:59;;;;;;;;;;;29.10;99.90;;;;;;4962667;28;19933;-77
2022/07/31 13:09:26;;;;;;;;;;;28.90;99.90;;;;;;5002174;28;19930;-77
2022/07/31 13:11:53;;;;;;;;;;;28.60;99.90;;;;;;4981382;28;19930;-77
2022/07/31 13:14:23;;;;;;;;;;;28.30;99.90;;;;;;4983168;28;19925;-78
2022/07/31 13:16:50;;;;;;;;;;;28.10;99.90;;;;;;4983367;28;20393;-79
2022/07/31 13:19:17;;;;;;;;;;;27.90;99.90;;;;;;4999431;28;19973;-77
2022/07/31 13:21:44;;;;;;;;;;;27.80;99.90;;;;;;4982508;28;20384;-80
2022/07/31 13:24:13;;;;;;;;;;;27.80;99.90;;;;;;4983510;28;19926;-77
2022/07/31 13:26:40;;;;;;;;;;;27.90;99.90;;;;;;5013600;28;19933;-78
2022/07/31 13:29:07;;;;;;;;;;;28.00;99.90;;;;;;4982813;28;19930;-79
2022/07/31 13:31:36;;;;;;;;;;;28.40;99.90;;;;;;4981096;28;19930;-79
2022/07/31 13:34:03;;;;;;;;;;;28.80;99.90;;;;;;4977749;28;20367;-79
2022/07/31 13:36:30;;;;;;;;;;;29.10;99.90;;;;;;4992378;28;20044;-78
2022/07/31 13:38:57;;;;;;;;;;;29.40;99.90;;;;;;4999044;28;19985;-79
2022/07/31 13:41:26;;;;;;;;;;;29.60;99.90;;;;;;4993767;28;20286;-78
2022/07/31 13:43:54;;;;;;;;;;;29.60;99.90;;;;;;4976736;28;20025;-81
2022/07/31 13:46:22;;;;;;;;;;;29.50;99.90;;;;;;4976014;28;19957;-81
2022/07/31 13:48:52;;;;;;;;;;;29.40;99.90;;;;;;4993427;28;20347;-80
2022/07/31 13:51:19;;;;;;;;;;;29.40;99.90;;;;;;5008800;28;19933;-80
2022/07/31 13:53:48;;;;;;;;;;;29.20;99.90;;;;;;4973629;28;19937;-79
2022/07/31 13:56:15;;;;;;;;;;;29.00;99.90;;;;;;4978579;28;19933;-79
2022/07/31 13:58:42;;;;;;;;;;;28.70;99.90;;;;;;4977892;28;20321;-79
2022/07/31 14:01:09;;;;;;;;;;;28.60;99.90;;;;;;4978365;28;19984;-81
2022/07/31 14:03:36;;;;;;;;;;;28.50;99.90;;;;;;4989056;28;20416;-81
2022/07/31 14:06:06;;;;;;;;;;;28.50;99.90;;;;;;4997996;28;19926;-79
2022/07/31 14:08:33;;;;;;;;;;;28.30;99.90;;;;;;4976461;28;20385;-79
2022/07/31 14:11:01;;;;;;;;;;;28.00;99.90;;;;;;4993230;28;19980;-80
2022/07/31 14:13:28;;;;;;;;;;;27.80;99.90;;;;;;5002842;28;19940;-78
2022/07/31 14:15:55;;;;;;;;;;;27.60;99.90;;;;;;4973770;28;20033;-79
2022/07/31 14:18:23;;;;;;;;;;;27.40;99.90;;;;;;4973371;28;19930;-78
2022/07/31 14:20:50;;;;;;;;;;;27.50;99.90;;;;;;4991161;28;20021;-79
2022/07/31 14:23:18;;;;;;;;;;;27.50;99.90;;;;;;4992646;28;19937;-79
2022/07/31 14:25:46;;;;;;;;;;;27.60;99.90;;;;;;4993663;28;19989;-78
2022/07/31 14:28:15;;;;;;;;;;;27.80;99.90;;;;;;4978888;28;19930;-78
2022/07/31 14:30:45;;;;;;;;;;;28.20;99.90;;;;;;4975252;28;19937;-80
2022/07/31 14:33:12;;;;;;;;;;;28.70;99.90;;;;;;4968274;28;19937;-80
2022/07/31 14:35:39;;;;;;;;;;;29.20;99.90;;;;;;5000416;28;19940;-78
2022/07/31 14:38:06;;;;;;;;;;;29.40;99.90;;;;;;4990622;28;19977;-80
2022/07/31 14:40:35;;;;;;;;;;;29.30;99.90;;;;;;4969402;28;19989;-81
2022/07/31 14:43:02;;;;;;;;;;;29.20;99.90;;;;;;4969093;28;20266;-82
2022/07/31 14:45:30;;;;;;;;;;;29.10;99.90;;;;;;4971229;28;19930;-84